sensor_id;sensor_type;location;lat;lon;timestamp;temperature;humidity
43810;DHT22;29440;48.208;11.162;2023-04-25T00:00:18;7.90;99.90
43810;DHT22;29440;48.208;11.162;2023-04-25T00:02:43;7.90;99.90
43810;DHT22;29440;48.208;11.162;2023-04-25T00:05:09;7.90;99.90
43810;DHT22;29440;48.208;11.162;2023-04-25T00:07:35;8.00;99.90
43810;DHT22;29440;48.208;11.162;2023-04-25T00:10:01;8.00;99.90
43810;DHT22;29440;48.208;11.162;2023-04-25T00:12:26;7.90;99.90
43810;DHT22;29440;48.208;11.162;2023-04-25T00:14:54;7.90;99.90
43810;DHT22;29440;48.208;11.162;2023-04-25T00:17:22;7.90;99.90
43810;DHT22;29440;48.208;11.162;2023-04-25T00:19:50;8.00;99.90
43810;DHT22;29440;48.208;11.162;2023-04-25T00:22:16;7.90;99.90
43810;DHT22;29440;48.208;11.162;2023-04-25T00:24:41;8.00;99.90
43810;DHT22;29440;48.208;11.162;2023-04-25T00:27:07;7.90;99.90
43810;DHT22;29440;48.208;11.162;2023-04-25T00:29:33;8.00;99.90
43810;DHT22;29440;48.208;11.162;2023-04-25T00:31:59;8.00;99.90
43810;DHT22;29440;48.208;11.162;2023-04-25T00:34:24;7.90;99.90
43810;DHT22;29440;48.208;11.162;2023-04-25T00:36:50;7.90;99.90
43810;DHT22;29440;48.208;11.162;2023-04-25T00:39:16;7.90;99.90
43810;DHT22;29440;48.208;11.162;2023-04-25T00:41:41;7.80;99.90
43810;DHT22;29440;48.208;11.162;2023-04-25T00:44:09;7.80;99.90
43810;DHT22;29440;48.208;11.162;2023-04-25T00:46:36;7.80;99.90
43810;DHT22;29440;48.208;11.162;2023-04-25T00:49:02;7.70;99.90
43810;DHT22;29440;48.208;11.162;2023-04-25T00:51:28;7.70;99.90
43810;DHT22;29440;48.208;11.162;2023-04-25T00:53:54;7.60;99.90
43810;DHT22;29440;48.208;11.162;2023-04-25T00:56:20;7.60;99.90
43810;DHT22;29440;48.208;11.162;2023-04-25T00:58:47;7.60;99.90
43810;DHT22;29440;48.208;11.162;2023-04-25T01:01:13;7.50;99.90
43810;DHT22;29440;48.208;11.162;2023-04-25T01:03:39;7.50;99.90
43810;DHT22;29440;48.208;11.162;2023-04-25T01:06:07;7.40;99.90
43810;DHT22;29440;48.208;11.162;2023-04-25T01:08:34;7.40;99.90
43810;DHT22;29440;48.208;11.162;2023-04-25T01:11:00;7.30;99.90
43810;DHT22;29440;48.208;11.162;2023-04-25T01:13:25;7.30;99.90
43810;DHT22;29440;48.208;11.162;2023-04-25T01:15:51;7.30;99.90
43810;DHT22;29440;48.208;11.162;2023-04-25T01:18:18;7.20;99.90
43810;DHT22;29440;48.208;11.162;2023-04-25T01:20:44;7.20;99.90
43810;DHT22;29440;48.208;11.162;2023-04-25T01:23:11;7.20;99.90
43810;DHT22;29440;48.208;11.162;2023-04-25T01:25:37;7.20;99.90
43810;DHT22;29440;48.208;11.162;2023-04-25T01:28:03;7.10;99.90
43810;DHT22;29440;48.208;11.162;2023-04-25T01:30:29;7.10;99.90
43810;DHT22;29440;48.208;11.162;2023-04-25T01:32:56;7.10;99.90
43810;DHT22;29440;48.208;11.162;2023-04-25T01:35:22;7.10;99.90
43810;DHT22;29440;48.208;11.162;2023-04-25T01:37:49;7.00;99.90
43810;DHT22;29440;48.208;11.162;2023-04-25T01:40:15;7.00;99.90
43810;DHT22;29440;48.208;11.162;2023-04-25T01:42:42;6.90;99.90
43810;DHT22;29440;48.208;11.162;2023-04-25T01:45:09;6.90;99.90
43810;DHT22;29440;48.208;11.162;2023-04-25T01:47:36;6.90;99.90
43810;DHT22;29440;48.208;11.162;2023-04-25T01:50:04;6.80;99.90
43810;DHT22;29440;48.208;11.162;2023-04-25T01:52:30;6.80;99.90
43810;DHT22;29440;48.208;11.162;2023-04-25T01:54:57;6.70;99.90
43810;DHT22;29440;48.208;11.162;2023-04-25T01:57:22;6.70;99.90
43810;DHT22;29440;48.208;11.162;2023-04-25T01:59:48;6.70;99.90
43810;DHT22;29440;48.208;11.162;2023-04-25T02:02:14;6.60;99.90
43810;DHT22;29440;48.208;11.162;2023-04-25T02:04:39;6.60;99.90
43810;DHT22;29440;48.208;11.162;2023-04-25T02:07:05;6.50;99.90
43810;DHT22;29440;48.208;11.162;2023-04-25T02:09:31;6.50;99.90
43810;DHT22;29440;48.208;11.162;2023-04-25T02:11:56;6.50;99.90
43810;DHT22;29440;48.208;11.162;2023-04-25T02:14:22;6.50;99.90
43810;DHT22;29440;48.208;11.162;2023-04-25T02:16:47;6.50;99.90
43810;DHT22;29440;48.208;11.162;2023-04-25T02:19:13;6.50;99.90
43810;DHT22;29440;48.208;11.162;2023-04-25T02:21:38;6.50;99.90
43810;DHT22;29440;48.208;11.162;2023-04-25T02:24:04;6.50;99.90
43810;DHT22;29440;48.208;11.162;2023-04-25T02:26:30;6.60;99.90
43810;DHT22;29440;48.208;11.162;2023-04-25T02:28:56;6.60;99.90
43810;DHT22;29440;48.208;11.162;2023-04-25T02:31:22;6.60;99.90
43810;DHT22;29440;48.208;11.162;2023-04-25T02:33:48;6.60;99.90
43810;DHT22;29440;48.208;11.162;2023-04-25T02:36:13;6.70;99.90
43810;DHT22;29440;48.208;11.162;2023-04-25T02:38:39;6.70;99.90
43810;DHT22;29440;48.208;11.162;2023-04-25T02:41:05;6.70;99.90
43810;DHT22;29440;48.208;11.162;2023-04-25T02:43:30;6.70;99.90
43810;DHT22;29440;48.208;11.162;2023-04-25T02:45:56;6.80;99.90
43810;DHT22;29440;48.208;11.162;2023-04-25T02:48:21;6.80;99.90
43810;DHT22;29440;48.208;11.162;2023-04-25T02:50:47;6.80;99.90
43810;DHT22;29440;48.208;11.162;2023-04-25T02:53:12;6.80;99.90
43810;DHT22;29440;48.208;11.162;2023-04-25T02:55:40;6.90;99.90
43810;DHT22;29440;48.208;11.162;2023-04-25T02:58:06;6.90;99.90
43810;DHT22;29440;48.208;11.162;2023-04-25T03:00:31;6.90;99.90
43810;DHT22;29440;48.208;11.162;2023-04-25T03:02:57;6.90;99.90
43810;DHT22;29440;48.208;11.162;2023-04-25T03:05:23;6.90;99.90
43810;DHT22;29440;48.208;11.162;2023-04-25T03:07:48;6.90;99.90
43810;DHT22;29440;48.208;11.162;2023-04-25T03:10:14;6.90;99.90
43810;DHT22;29440;48.208;11.162;2023-04-25T03:12:39;6.90;99.90
43810;DHT22;29440;48.208;11.162;2023-04-25T03:15:05;6.90;99.90
43810;DHT22;29440;48.208;11.162;2023-04-25T03:17:31;6.90;99.90
43810;DHT22;29440;48.208;11.162;2023-04-25T03:19:57;6.90;99.90
43810;DHT22;29440;48.208;11.162;2023-04-25T03:22:23;6.80;99.90
43810;DHT22;29440;48.208;11.162;2023-04-25T03:24:50;6.80;99.90
43810;DHT22;29440;48.208;11.162;2023-04-25T03:27:16;6.80;99.90
43810;DHT22;29440;48.208;11.162;2023-04-25T03:29:41;6.80;99.90
43810;DHT22;29440;48.208;11.162;2023-04-25T03:32:07;6.80;99.90
43810;DHT22;29440;48.208;11.162;2023-04-25T03:34:32;6.70;99.90
43810;DHT22;29440;48.208;11.162;2023-04-25T03:36:58;6.70;99.90
43810;DHT22;29440;48.208;11.162;2023-04-25T03:39:23;6.70;99.90
43810;DHT22;29440;48.208;11.162;2023-04-25T03:41:49;6.70;99.90
43810;DHT22;29440;48.208;11.162;2023-04-25T03:44:14;6.70;99.90
43810;DHT22;29440;48.208;11.162;2023-04-25T03:46:40;6.70;99.90
43810;DHT22;29440;48.208;11.162;2023-04-25T03:49:05;6.60;99.90
43810;DHT22;29440;48.208;11.162;2023-04-25T03:51:32;6.60;99.90
43810;DHT22;29440;48.208;11.162;2023-04-25T03:53:58;6.60;99.90
43810;DHT22;29440;48.208;11.162;2023-04-25T03:56:23;6.60;99.90
43810;DHT22;29440;48.208;11.162;2023-04-25T03:58:49;6.70;99.90
43810;DHT22;29440;48.208;11.162;2023-04-25T04:01:14;6.60;99.90
43810;DHT22;29440;48.208;11.162;2023-04-25T04:03:40;6.60;99.90
43810;DHT22;29440;48.208;11.162;2023-04-25T04:06:06;6.60;99.90
43810;DHT22;29440;48.208;11.162;2023-04-25T04:08:33;6.60;99.90
43810;DHT22;29440;48.208;11.162;2023-04-25T04:10:58;6.70;99.90
43810;DHT22;29440;48.208;11.162;2023-04-25T04:13:28;6.60;99.90
43810;DHT22;29440;48.208;11.162;2023-04-25T04:15:54;6.60;99.90
43810;DHT22;29440;48.208;11.162;2023-04-25T04:18:20;6.60;99.90
43810;DHT22;29440;48.208;11.162;2023-04-25T04:20:46;6.60;99.90
43810;DHT22;29440;48.208;11.162;2023-04-25T04:23:12;6.60;99.90
43810;DHT22;29440;48.208;11.162;2023-04-25T04:25:41;6.60;99.90
43810;DHT22;29440;48.208;11.162;2023-04-25T04:28:07;6.60;99.90
43810;DHT22;29440;48.208;11.162;2023-04-25T04:30:33;6.60;99.90
43810;DHT22;29440;48.208;11.162;2023-04-25T04:33:02;6.60;99.90
43810;DHT22;29440;48.208;11.162;2023-04-25T04:35:28;6.70;99.90
43810;DHT22;29440;48.208;11.162;2023-04-25T04:37:53;6.70;99.90
43810;DHT22;29440;48.208;11.162;2023-04-25T04:40:19;6.70;99.90
43810;DHT22;29440;48.208;11.162;2023-04-25T04:42:45;6.70;99.90
43810;DHT22;29440;48.208;11.162;2023-04-25T04:45:11;6.70;99.90
43810;DHT22;29440;48.208;11.162;2023-04-25T04:47:37;6.80;99.90
43810;DHT22;29440;48.208;11.162;2023-04-25T04:50:05;6.80;99.90
43810;DHT22;29440;48.208;11.162;2023-04-25T04:52:34;6.80;99.90
43810;DHT22;29440;48.208;11.162;2023-04-25T04:54:59;6.80;99.90
43810;DHT22;29440;48.208;11.162;2023-04-25T04:57:25;6.80;99.90
43810;DHT22;29440;48.208;11.162;2023-04-25T04:59:51;6.80;99.90
43810;DHT22;29440;48.208;11.162;2023-04-25T05:02:16;6.90;99.90
43810;DHT22;29440;48.208;11.162;2023-04-25T05:04:42;6.90;99.90
43810;DHT22;29440;48.208;11.162;2023-04-25T05:07:07;6.90;99.90
43810;DHT22;29440;48.208;11.162;2023-04-25T05:09:33;6.90;99.90
43810;DHT22;29440;48.208;11.162;2023-04-25T05:11:58;6.90;99.90
43810;DHT22;29440;48.208;11.162;2023-04-25T05:14:24;6.90;99.90
43810;DHT22;29440;48.208;11.162;2023-04-25T05:16:50;6.90;99.90
43810;DHT22;29440;48.208;11.162;2023-04-25T05:19:16;6.90;99.90
43810;DHT22;29440;48.208;11.162;2023-04-25T05:21:41;6.90;99.90
43810;DHT22;29440;48.208;11.162;2023-04-25T05:24:08;6.90;99.90
43810;DHT22;29440;48.208;11.162;2023-04-25T05:26:34;7.00;99.90
43810;DHT22;29440;48.208;11.162;2023-04-25T05:29:00;6.80;99.90
43810;DHT22;29440;48.208;11.162;2023-04-25T05:31:25;6.90;99.90
43810;DHT22;29440;48.208;11.162;2023-04-25T05:33:51;6.90;99.90
43810;DHT22;29440;48.208;11.162;2023-04-25T05:36:19;6.90;99.90
43810;DHT22;29440;48.208;11.162;2023-04-25T05:38:45;6.90;99.90
43810;DHT22;29440;48.208;11.162;2023-04-25T05:41:10;6.90;99.90
43810;DHT22;29440;48.208;11.162;2023-04-25T05:43:36;6.80;99.90
43810;DHT22;29440;48.208;11.162;2023-04-25T05:46:02;6.70;99.90
43810;DHT22;29440;48.208;11.162;2023-04-25T05:48:27;6.70;99.90
43810;DHT22;29440;48.208;11.162;2023-04-25T05:50:53;6.70;99.90
43810;DHT22;29440;48.208;11.162;2023-04-25T05:53:19;6.70;99.90
43810;DHT22;29440;48.208;11.162;2023-04-25T05:55:45;6.70;99.90
43810;DHT22;29440;48.208;11.162;2023-04-25T05:58:10;6.70;99.90
43810;DHT22;29440;48.208;11.162;2023-04-25T06:00:36;6.70;99.90
43810;DHT22;29440;48.208;11.162;2023-04-25T06:03:02;6.70;99.90
43810;DHT22;29440;48.208;11.162;2023-04-25T06:05:27;6.70;99.90
43810;DHT22;29440;48.208;11.162;2023-04-25T06:07:53;6.80;99.90
43810;DHT22;29440;48.208;11.162;2023-04-25T06:10:18;6.90;99.90
43810;DHT22;29440;48.208;11.162;2023-04-25T06:12:44;7.00;99.90
43810;DHT22;29440;48.208;11.162;2023-04-25T06:15:10;7.20;99.90
43810;DHT22;29440;48.208;11.162;2023-04-25T06:17:35;7.60;99.90
43810;DHT22;29440;48.208;11.162;2023-04-25T06:20:01;8.20;99.90
43810;DHT22;29440;48.208;11.162;2023-04-25T06:22:27;8.60;99.90
43810;DHT22;29440;48.208;11.162;2023-04-25T06:24:52;8.80;99.90
43810;DHT22;29440;48.208;11.162;2023-04-25T06:27:18;8.90;99.90
43810;DHT22;29440;48.208;11.162;2023-04-25T06:29:43;9.00;99.90
43810;DHT22;29440;48.208;11.162;2023-04-25T06:32:09;9.00;99.90
43810;DHT22;29440;48.208;11.162;2023-04-25T06:34:35;9.00;99.90
43810;DHT22;29440;48.208;11.162;2023-04-25T06:37:00;9.00;99.90
43810;DHT22;29440;48.208;11.162;2023-04-25T06:39:26;9.00;99.90
43810;DHT22;29440;48.208;11.162;2023-04-25T06:41:51;8.90;99.90
43810;DHT22;29440;48.208;11.162;2023-04-25T06:44:17;8.80;99.90
43810;DHT22;29440;48.208;11.162;2023-04-25T06:46:42;8.70;99.90
43810;DHT22;29440;48.208;11.162;2023-04-25T06:49:08;8.70;99.90
43810;DHT22;29440;48.208;11.162;2023-04-25T06:51:33;8.80;99.90
43810;DHT22;29440;48.208;11.162;2023-04-25T06:53:59;8.80;99.90
43810;DHT22;29440;48.208;11.162;2023-04-25T06:56:25;9.00;99.90
43810;DHT22;29440;48.208;11.162;2023-04-25T06:58:50;9.10;99.90
43810;DHT22;29440;48.208;11.162;2023-04-25T07:01:16;9.40;99.90
43810;DHT22;29440;48.208;11.162;2023-04-25T07:03:41;9.90;99.90
43810;DHT22;29440;48.208;11.162;2023-04-25T07:06:07;10.80;99.90
43810;DHT22;29440;48.208;11.162;2023-04-25T07:08:33;11.70;99.90
43810;DHT22;29440;48.208;11.162;2023-04-25T07:10:58;12.80;99.90
43810;DHT22;29440;48.208;11.162;2023-04-25T07:13:24;13.80;99.90
43810;DHT22;29440;48.208;11.162;2023-04-25T07:15:49;14.70;99.90
43810;DHT22;29440;48.208;11.162;2023-04-25T07:18:15;15.60;99.90
43810;DHT22;29440;48.208;11.162;2023-04-25T07:20:41;16.30;99.90
43810;DHT22;29440;48.208;11.162;2023-04-25T07:23:06;17.00;99.90
43810;DHT22;29440;48.208;11.162;2023-04-25T07:25:32;17.60;99.90
43810;DHT22;29440;48.208;11.162;2023-04-25T07:27:58;18.10;99.90
43810;DHT22;29440;48.208;11.162;2023-04-25T07:30:23;18.20;99.90
43810;DHT22;29440;48.208;11.162;2023-04-25T07:32:49;17.70;99.90
43810;DHT22;29440;48.208;11.162;2023-04-25T07:35:16;17.20;99.90
43810;DHT22;29440;48.208;11.162;2023-04-25T07:37:41;16.60;99.90
43810;DHT22;29440;48.208;11.162;2023-04-25T07:40:07;16.00;99.90
43810;DHT22;29440;48.208;11.162;2023-04-25T07:42:34;15.60;99.90
43810;DHT22;29440;48.208;11.162;2023-04-25T07:45:00;15.10;99.90
43810;DHT22;29440;48.208;11.162;2023-04-25T07:47:26;14.90;99.90
43810;DHT22;29440;48.208;11.162;2023-04-25T07:49:52;14.70;99.90
43810;DHT22;29440;48.208;11.162;2023-04-25T07:52:18;14.50;99.90
43810;DHT22;29440;48.208;11.162;2023-04-25T07:54:43;14.70;99.90
43810;DHT22;29440;48.208;11.162;2023-04-25T07:57:09;14.80;99.90
43810;DHT22;29440;48.208;11.162;2023-04-25T07:59:35;15.00;99.90
43810;DHT22;29440;48.208;11.162;2023-04-25T08:02:01;15.30;99.90
43810;DHT22;29440;48.208;11.162;2023-04-25T08:04:26;15.60;99.90
43810;DHT22;29440;48.208;11.162;2023-04-25T08:06:52;15.90;99.90
43810;DHT22;29440;48.208;11.162;2023-04-25T08:09:19;16.10;99.90
43810;DHT22;29440;48.208;11.162;2023-04-25T08:11:45;16.10;99.90
43810;DHT22;29440;48.208;11.162;2023-04-25T08:14:11;16.10;99.90
43810;DHT22;29440;48.208;11.162;2023-04-25T08:16:37;15.90;99.90
43810;DHT22;29440;48.208;11.162;2023-04-25T08:19:03;16.00;99.90
43810;DHT22;29440;48.208;11.162;2023-04-25T08:21:28;16.00;99.90
43810;DHT22;29440;48.208;11.162;2023-04-25T08:23:54;16.10;99.90
43810;DHT22;29440;48.208;11.162;2023-04-25T08:26:19;15.80;99.90
43810;DHT22;29440;48.208;11.162;2023-04-25T08:28:46;15.40;99.90
43810;DHT22;29440;48.208;11.162;2023-04-25T08:31:12;15.20;99.90
43810;DHT22;29440;48.208;11.162;2023-04-25T08:33:37;14.90;99.90
43810;DHT22;29440;48.208;11.162;2023-04-25T08:36:03;14.60;99.90
43810;DHT22;29440;48.208;11.162;2023-04-25T08:38:28;14.30;99.90
43810;DHT22;29440;48.208;11.162;2023-04-25T08:40:55;14.00;99.90
43810;DHT22;29440;48.208;11.162;2023-04-25T08:43:23;13.70;99.90
43810;DHT22;29440;48.208;11.162;2023-04-25T08:45:53;13.60;99.90
43810;DHT22;29440;48.208;11.162;2023-04-25T08:48:19;13.50;99.90
43810;DHT22;29440;48.208;11.162;2023-04-25T08:50:50;13.50;99.90
43810;DHT22;29440;48.208;11.162;2023-04-25T08:53:17;13.50;99.90
43810;DHT22;29440;48.208;11.162;2023-04-25T08:55:46;13.60;99.90
43810;DHT22;29440;48.208;11.162;2023-04-25T08:58:12;13.90;99.90
43810;DHT22;29440;48.208;11.162;2023-04-25T09:00:38;14.10;99.90
43810;DHT22;29440;48.208;11.162;2023-04-25T09:03:04;14.10;99.90
43810;DHT22;29440;48.208;11.162;2023-04-25T09:05:30;14.40;99.90
43810;DHT22;29440;48.208;11.162;2023-04-25T09:07:56;14.50;99.90
43810;DHT22;29440;48.208;11.162;2023-04-25T09:10:23;14.60;99.90
43810;DHT22;29440;48.208;11.162;2023-04-25T09:13:08;14.50;99.90
43810;DHT22;29440;48.208;11.162;2023-04-25T09:15:54;14.30;99.90
43810;DHT22;29440;48.208;11.162;2023-04-25T09:20:49;14.10;99.90
43810;DHT22;29440;48.208;11.162;2023-04-25T09:23:15;14.10;99.90
43810;DHT22;29440;48.208;11.162;2023-04-25T09:25:40;14.30;99.90
43810;DHT22;29440;48.208;11.162;2023-04-25T09:28:08;14.50;99.90
43810;DHT22;29440;48.208;11.162;2023-04-25T09:30:35;14.60;99.90
43810;DHT22;29440;48.208;11.162;2023-04-25T09:33:05;14.90;99.90
43810;DHT22;29440;48.208;11.162;2023-04-25T09:35:39;14.80;99.90
43810;DHT22;29440;48.208;11.162;2023-04-25T09:38:14;14.80;99.90
43810;DHT22;29440;48.208;11.162;2023-04-25T09:40:44;14.70;99.90
43810;DHT22;29440;48.208;11.162;2023-04-25T09:43:30;14.60;99.90
43810;DHT22;29440;48.208;11.162;2023-04-25T09:45:56;14.30;99.90
43810;DHT22;29440;48.208;11.162;2023-04-25T09:48:26;14.20;99.90
43810;DHT22;29440;48.208;11.162;2023-04-25T09:51:13;14.00;99.90
43810;DHT22;29440;48.208;11.162;2023-04-25T09:53:41;13.70;99.90
43810;DHT22;29440;48.208;11.162;2023-04-25T09:56:08;13.60;99.90
43810;DHT22;29440;48.208;11.162;2023-04-25T09:58:36;13.40;99.90
43810;DHT22;29440;48.208;11.162;2023-04-25T10:01:06;13.30;99.90
43810;DHT22;29440;48.208;11.162;2023-04-25T10:03:34;13.30;99.90
43810;DHT22;29440;48.208;11.162;2023-04-25T10:06:02;13.20;99.90
43810;DHT22;29440;48.208;11.162;2023-04-25T10:08:35;13.20;99.90
43810;DHT22;29440;48.208;11.162;2023-04-25T10:11:06;12.90;99.90
43810;DHT22;29440;48.208;11.162;2023-04-25T10:13:33;12.50;99.90
43810;DHT22;29440;48.208;11.162;2023-04-25T10:16:00;12.10;99.90
43810;DHT22;29440;48.208;11.162;2023-04-25T10:18:27;11.70;99.90
43810;DHT22;29440;48.208;11.162;2023-04-25T10:21:04;11.30;99.90
43810;DHT22;29440;48.208;11.162;2023-04-25T10:23:30;11.00;99.90
43810;DHT22;29440;48.208;11.162;2023-04-25T10:25:57;10.80;99.90
43810;DHT22;29440;48.208;11.162;2023-04-25T10:28:23;10.60;99.90
43810;DHT22;29440;48.208;11.162;2023-04-25T10:31:07;10.40;99.90
43810;DHT22;29440;48.208;11.162;2023-04-25T10:33:37;10.40;99.90
43810;DHT22;29440;48.208;11.162;2023-04-25T10:36:22;10.10;99.90
43810;DHT22;29440;48.208;11.162;2023-04-25T10:38:49;10.00;99.90
43810;DHT22;29440;48.208;11.162;2023-04-25T10:41:19;10.00;99.90
43810;DHT22;29440;48.208;11.162;2023-04-25T10:43:46;10.10;99.90
43810;DHT22;29440;48.208;11.162;2023-04-25T10:46:26;10.10;99.90
43810;DHT22;29440;48.208;11.162;2023-04-25T10:48:54;10.10;99.90
43810;DHT22;29440;48.208;11.162;2023-04-25T10:51:31;10.20;99.90
43810;DHT22;29440;48.208;11.162;2023-04-25T10:56:38;10.30;99.90
43810;DHT22;29440;48.208;11.162;2023-04-25T10:59:18;10.30;99.90
43810;DHT22;29440;48.208;11.162;2023-04-25T11:01:45;10.40;99.90
43810;DHT22;29440;48.208;11.162;2023-04-25T11:04:25;10.50;99.90
43810;DHT22;29440;48.208;11.162;2023-04-25T11:09:28;10.60;99.90
43810;DHT22;29440;48.208;11.162;2023-04-25T11:11:55;10.80;99.90
43810;DHT22;29440;48.208;11.162;2023-04-25T11:14:21;10.90;99.90
43810;DHT22;29440;48.208;11.162;2023-04-25T11:16:47;10.90;99.90
43810;DHT22;29440;48.208;11.162;2023-04-25T11:19:12;10.90;99.90
43810;DHT22;29440;48.208;11.162;2023-04-25T11:21:38;10.90;99.90
43810;DHT22;29440;48.208;11.162;2023-04-25T11:24:04;10.70;99.90
43810;DHT22;29440;48.208;11.162;2023-04-25T11:26:30;10.40;99.90
43810;DHT22;29440;48.208;11.162;2023-04-25T11:28:59;10.20;99.90
43810;DHT22;29440;48.208;11.162;2023-04-25T11:31:29;10.00;99.90
43810;DHT22;29440;48.208;11.162;2023-04-25T11:33:57;9.80;99.90
43810;DHT22;29440;48.208;11.162;2023-04-25T11:36:24;9.70;99.90
43810;DHT22;29440;48.208;11.162;2023-04-25T11:38:53;9.50;99.90
43810;DHT22;29440;48.208;11.162;2023-04-25T11:41:20;9.40;99.90
43810;DHT22;29440;48.208;11.162;2023-04-25T11:43:48;9.10;99.90
43810;DHT22;29440;48.208;11.162;2023-04-25T11:46:16;9.00;99.90
43810;DHT22;29440;48.208;11.162;2023-04-25T11:48:43;8.70;99.90
43810;DHT22;29440;48.208;11.162;2023-04-25T11:51:09;8.60;99.90
43810;DHT22;29440;48.208;11.162;2023-04-25T11:53:35;8.50;99.90
43810;DHT22;29440;48.208;11.162;2023-04-25T11:56:01;8.30;99.90
43810;DHT22;29440;48.208;11.162;2023-04-25T11:58:27;8.20;99.90
43810;DHT22;29440;48.208;11.162;2023-04-25T12:00:53;8.00;99.90
43810;DHT22;29440;48.208;11.162;2023-04-25T12:03:19;8.00;99.90
43810;DHT22;29440;48.208;11.162;2023-04-25T12:05:45;7.90;99.90
43810;DHT22;29440;48.208;11.162;2023-04-25T12:08:15;7.90;99.90
43810;DHT22;29440;48.208;11.162;2023-04-25T12:10:43;7.80;99.90
43810;DHT22;29440;48.208;11.162;2023-04-25T12:13:20;7.80;99.90
43810;DHT22;29440;48.208;11.162;2023-04-25T12:15:46;7.80;99.90
43810;DHT22;29440;48.208;11.162;2023-04-25T12:18:11;7.80;99.90
43810;DHT22;29440;48.208;11.162;2023-04-25T12:20:37;7.80;99.90
43810;DHT22;29440;48.208;11.162;2023-04-25T12:23:05;7.80;99.90
43810;DHT22;29440;48.208;11.162;2023-04-25T12:25:43;7.90;99.90
43810;DHT22;29440;48.208;11.162;2023-04-25T12:28:15;8.00;99.90
43810;DHT22;29440;48.208;11.162;2023-04-25T12:30:53;8.10;99.90
43810;DHT22;29440;48.208;11.162;2023-04-25T12:33:20;8.20;99.90
43810;DHT22;29440;48.208;11.162;2023-04-25T12:35:47;8.10;99.90
43810;DHT22;29440;48.208;11.162;2023-04-25T12:38:21;8.20;99.90
43810;DHT22;29440;48.208;11.162;2023-04-25T12:40:46;8.30;99.90
43810;DHT22;29440;48.208;11.162;2023-04-25T12:43:12;8.40;99.90
43810;DHT22;29440;48.208;11.162;2023-04-25T12:45:37;8.50;99.90
43810;DHT22;29440;48.208;11.162;2023-04-25T12:48:03;8.70;99.90
43810;DHT22;29440;48.208;11.162;2023-04-25T12:50:29;8.60;99.90
43810;DHT22;29440;48.208;11.162;2023-04-25T12:52:54;8.60;99.90
43810;DHT22;29440;48.208;11.162;2023-04-25T12:55:20;8.60;99.90
43810;DHT22;29440;48.208;11.162;2023-04-25T12:57:46;8.60;99.90
43810;DHT22;29440;48.208;11.162;2023-04-25T13:00:12;8.60;99.90
43810;DHT22;29440;48.208;11.162;2023-04-25T13:02:40;8.40;99.90
43810;DHT22;29440;48.208;11.162;2023-04-25T13:05:06;8.30;99.90
43810;DHT22;29440;48.208;11.162;2023-04-25T13:07:31;8.20;99.90
43810;DHT22;29440;48.208;11.162;2023-04-25T13:09:57;8.20;99.90
43810;DHT22;29440;48.208;11.162;2023-04-25T13:12:22;8.20;99.90
43810;DHT22;29440;48.208;11.162;2023-04-25T13:14:48;8.30;99.90
43810;DHT22;29440;48.208;11.162;2023-04-25T13:17:13;8.30;99.90
43810;DHT22;29440;48.208;11.162;2023-04-25T13:19:39;8.30;99.90
43810;DHT22;29440;48.208;11.162;2023-04-25T13:22:05;8.30;99.90
43810;DHT22;29440;48.208;11.162;2023-04-25T13:24:30;8.30;99.90
43810;DHT22;29440;48.208;11.162;2023-04-25T13:26:56;8.30;99.90
43810;DHT22;29440;48.208;11.162;2023-04-25T13:29:21;8.40;99.90
43810;DHT22;29440;48.208;11.162;2023-04-25T13:31:47;8.40;99.90
43810;DHT22;29440;48.208;11.162;2023-04-25T13:34:12;8.50;99.90
43810;DHT22;29440;48.208;11.162;2023-04-25T13:36:38;8.60;99.90
43810;DHT22;29440;48.208;11.162;2023-04-25T13:39:04;8.70;99.90
43810;DHT22;29440;48.208;11.162;2023-04-25T13:41:30;8.80;99.90
43810;DHT22;29440;48.208;11.162;2023-04-25T13:43:56;8.80;99.90
43810;DHT22;29440;48.208;11.162;2023-04-25T13:46:21;8.80;99.90
43810;DHT22;29440;48.208;11.162;2023-04-25T13:48:47;8.90;99.90
43810;DHT22;29440;48.208;11.162;2023-04-25T13:51:15;8.70;99.90
43810;DHT22;29440;48.208;11.162;2023-04-25T13:53:41;8.70;99.90
43810;DHT22;29440;48.208;11.162;2023-04-25T13:56:06;8.80;99.90
43810;DHT22;29440;48.208;11.162;2023-04-25T13:58:32;8.80;99.90
43810;DHT22;29440;48.208;11.162;2023-04-25T14:00:58;8.80;99.90
43810;DHT22;29440;48.208;11.162;2023-04-25T14:03:26;8.90;99.90
43810;DHT22;29440;48.208;11.162;2023-04-25T14:05:52;8.90;99.90
43810;DHT22;29440;48.208;11.162;2023-04-25T14:08:17;8.90;99.90
43810;DHT22;29440;48.208;11.162;2023-04-25T14:10:43;8.90;99.90
43810;DHT22;29440;48.208;11.162;2023-04-25T14:13:08;8.90;99.90
43810;DHT22;29440;48.208;11.162;2023-04-25T14:15:35;8.90;99.90
43810;DHT22;29440;48.208;11.162;2023-04-25T14:18:01;8.90;99.90
43810;DHT22;29440;48.208;11.162;2023-04-25T14:20:27;8.90;99.90
43810;DHT22;29440;48.208;11.162;2023-04-25T14:22:53;9.00;99.90
43810;DHT22;29440;48.208;11.162;2023-04-25T14:25:20;9.10;99.90
43810;DHT22;29440;48.208;11.162;2023-04-25T14:27:45;9.10;99.90
43810;DHT22;29440;48.208;11.162;2023-04-25T14:30:15;9.20;99.90
43810;DHT22;29440;48.208;11.162;2023-04-25T14:32:41;9.20;99.90
43810;DHT22;29440;48.208;11.162;2023-04-25T14:35:07;9.30;99.90
43810;DHT22;29440;48.208;11.162;2023-04-25T14:37:33;9.30;99.90
43810;DHT22;29440;48.208;11.162;2023-04-25T14:39:58;9.30;99.90
43810;DHT22;29440;48.208;11.162;2023-04-25T14:42:24;9.40;99.90
43810;DHT22;29440;48.208;11.162;2023-04-25T14:44:49;9.30;99.90
43810;DHT22;29440;48.208;11.162;2023-04-25T14:47:16;9.40;99.90
43810;DHT22;29440;48.208;11.162;2023-04-25T14:49:41;9.30;99.90
43810;DHT22;29440;48.208;11.162;2023-04-25T14:52:07;9.30;99.90
43810;DHT22;29440;48.208;11.162;2023-04-25T14:54:33;9.40;99.90
43810;DHT22;29440;48.208;11.162;2023-04-25T14:56:58;9.40;99.90
43810;DHT22;29440;48.208;11.162;2023-04-25T14:59:24;9.30;99.90
43810;DHT22;29440;48.208;11.162;2023-04-25T15:01:50;9.20;99.90
43810;DHT22;29440;48.208;11.162;2023-04-25T15:04:16;9.10;99.90
43810;DHT22;29440;48.208;11.162;2023-04-25T15:06:42;9.10;99.90
43810;DHT22;29440;48.208;11.162;2023-04-25T15:09:08;8.90;99.90
43810;DHT22;29440;48.208;11.162;2023-04-25T15:11:35;8.90;99.90
43810;DHT22;29440;48.208;11.162;2023-04-25T15:14:00;8.90;99.90
43810;DHT22;29440;48.208;11.162;2023-04-25T15:16:26;8.80;99.90
43810;DHT22;29440;48.208;11.162;2023-04-25T15:18:51;8.90;99.90
43810;DHT22;29440;48.208;11.162;2023-04-25T15:21:17;8.80;99.90
43810;DHT22;29440;48.208;11.162;2023-04-25T15:23:43;8.80;99.90
43810;DHT22;29440;48.208;11.162;2023-04-25T15:26:08;8.80;99.90
43810;DHT22;29440;48.208;11.162;2023-04-25T15:28:34;8.80;99.90
43810;DHT22;29440;48.208;11.162;2023-04-25T15:30:59;8.80;99.90